createdAt,value
2019-05-21T14:28:28.739Z,14.00
2019-05-21T14:31:00.719Z,14.00
2019-05-21T14:33:31.295Z,13.90
2019-05-21T14:36:01.988Z,13.90
2019-05-21T14:38:33.772Z,14.00
2019-05-21T14:41:04.199Z,14.00
2019-05-21T14:43:36.428Z,14.00
2019-05-21T14:46:21.568Z,14.00
2019-05-21T14:48:51.618Z,14.10
2019-05-21T14:51:21.860Z,14.20
2019-05-21T14:53:53.822Z,14.10
2019-05-21T14:56:24.547Z,14.20
2019-05-21T14:58:56.093Z,14.30
2019-05-21T15:01:26.129Z,14.20
2019-05-21T15:03:56.661Z,14.20
2019-05-21T15:06:27.321Z,14.20
2019-05-21T15:08:57.868Z,14.30
2019-05-21T15:11:31.159Z,14.30
2019-05-21T15:14:02.133Z,14.30
2019-05-21T15:17:32.291Z,14.30
2019-05-21T15:20:06.212Z,14.30
2019-05-21T15:22:38.402Z,14.20
2019-05-21T15:25:09.462Z,14.30
2019-05-21T15:27:42.698Z,14.30
2019-05-21T15:30:15.694Z,14.30
2019-05-21T15:32:46.238Z,14.40
2019-05-21T15:35:17.663Z,14.40
2019-05-21T15:37:48.197Z,14.50
2019-05-21T15:40:20.952Z,14.60
2019-05-21T15:42:53.763Z,14.50
2019-05-21T15:45:24.563Z,14.40
2019-05-21T15:47:56.995Z,14.40
2019-05-21T15:50:48.272Z,14.50
2019-05-21T15:53:19.505Z,14.50
2019-05-21T15:55:53.315Z,14.50
2019-05-21T15:58:27.124Z,14.50
2019-05-21T16:00:59.549Z,14.60
2019-05-21T16:03:30.220Z,14.50
2019-05-21T16:06:00.686Z,14.50
2019-05-21T16:08:31.480Z,14.60
2019-05-21T16:11:01.783Z,14.60
2019-05-21T16:13:34.272Z,14.60
2019-05-21T16:16:05.443Z,14.60
2019-05-21T16:18:35.846Z,14.50
2019-05-21T16:21:06.424Z,14.50
2019-05-21T16:23:40.080Z,14.50
2019-05-21T16:26:11.106Z,14.50
2019-05-21T16:28:43.362Z,14.50
2019-05-21T16:31:18.944Z,14.50
2019-05-21T16:34:45.584Z,14.50
2019-05-21T16:37:17.011Z,14.50
2019-05-21T16:39:47.439Z,14.60
2019-05-21T16:42:17.857Z,14.60
2019-05-21T16:44:48.437Z,14.50
2019-05-21T16:47:18.605Z,14.60
2019-05-21T16:49:49.145Z,14.60
2019-05-21T16:52:19.913Z,14.60
2019-05-21T16:54:50.687Z,14.60
2019-05-21T16:57:22.179Z,14.60
2019-05-21T16:59:53.052Z,14.60
2019-05-21T17:02:23.435Z,14.70
2019-05-21T17:04:54.027Z,14.70
2019-05-21T17:07:25.656Z,14.70
2019-05-21T17:09:57.104Z,14.70
2019-05-21T17:12:30.170Z,14.70
2019-05-21T17:15:03.277Z,14.70
2019-05-21T17:17:53.016Z,14.80
2019-05-21T17:20:23.290Z,14.80
2019-05-21T17:22:55.984Z,14.70
2019-05-21T17:25:30.269Z,14.80
2019-05-21T17:28:00.914Z,14.80
2019-05-21T17:30:31.420Z,14.80
2019-05-21T17:33:03.960Z,14.80
2019-05-21T17:35:34.666Z,14.80
2019-05-21T17:41:52.536Z,14.90
2019-05-21T17:44:24.943Z,14.90
2019-05-21T17:46:55.659Z,14.90
2019-05-21T17:49:29.083Z,14.90
2019-05-21T17:51:59.542Z,14.90
2019-05-21T17:54:30.022Z,15.00
2019-05-21T17:57:00.726Z,15.00
2019-05-21T17:59:31.515Z,15.00
2019-05-21T18:02:03.248Z,15.00
2019-05-21T18:04:33.858Z,15.00
2019-05-21T18:07:05.284Z,15.00
2019-05-21T18:09:35.855Z,15.10
2019-05-21T18:12:07.536Z,15.00
2019-05-21T18:14:39.083Z,15.00
2019-05-21T18:17:13.517Z,15.00
2019-05-21T18:19:44.392Z,15.10
2019-05-21T18:22:16.109Z,15.10
2019-05-21T18:24:48.746Z,15.10
2019-05-21T18:27:18.973Z,15.00
2019-05-21T18:29:49.314Z,15.00
2019-05-21T18:32:20.073Z,15.00
2019-05-21T18:34:50.972Z,15.00
2019-05-21T18:37:21.188Z,14.90
2019-05-21T18:39:51.534Z,14.80
2019-05-21T18:42:22.777Z,14.80
2019-05-21T18:44:53.222Z,14.80
2019-05-21T18:47:23.762Z,14.70
2019-05-21T18:49:54.172Z,14.80
2019-05-21T18:52:24.406Z,14.70
2019-05-21T18:54:54.885Z,14.70
2019-05-21T18:57:24.972Z,14.70
2019-05-21T18:59:55.071Z,14.60
2019-05-21T19:02:25.032Z,14.50
2019-05-21T19:04:55.285Z,14.50
2019-05-21T19:07:25.522Z,14.40
2019-05-21T19:09:56.233Z,14.40
2019-05-21T19:12:37.558Z,14.30
2019-05-21T19:14:58.591Z,14.30
2019-05-21T19:17:35.696Z,14.30
2019-05-21T19:20:00.923Z,14.30
2019-05-21T19:22:31.021Z,14.30
2019-05-21T19:25:01.441Z,14.30
2019-05-21T19:27:34.976Z,14.40
2019-05-21T19:30:06.166Z,14.40
2019-05-21T19:32:37.125Z,14.40
2019-05-21T19:35:07.793Z,14.40
2019-05-21T19:37:38.194Z,14.40
2019-05-21T19:40:09.418Z,14.50
2019-05-21T19:42:53.925Z,14.50
2019-05-21T19:45:11.821Z,14.50
2019-05-21T19:47:42.516Z,14.50
2019-05-21T19:50:13.397Z,14.40
2019-05-21T19:52:46.657Z,14.40
2019-05-21T19:55:16.766Z,14.30
2019-05-21T19:57:46.896Z,14.30
2019-05-21T20:00:21.028Z,14.20
2019-05-21T20:02:51.479Z,14.20
2019-05-21T20:05:22.040Z,14.10
2019-05-21T20:07:52.418Z,14.10
2019-05-21T20:10:22.845Z,14.10
2019-05-21T20:12:52.730Z,14.10
2019-05-21T20:15:24.627Z,14.00
2019-05-21T20:18:06.652Z,14.00
2019-05-21T20:20:27.907Z,13.90
2019-05-21T20:22:58.041Z,13.90
2019-05-21T20:25:29.237Z,13.90
2019-05-21T20:27:59.288Z,13.80
2019-05-21T20:30:31.045Z,13.80
2019-05-21T20:33:01.167Z,13.70
2019-05-21T20:35:32.065Z,13.70
2019-05-21T20:38:03.654Z,13.70
2019-05-21T20:40:33.703Z,13.70
2019-05-21T20:43:04.743Z,13.60
2019-05-21T20:45:36.091Z,13.70
2019-05-21T20:48:07.183Z,13.70
2019-05-21T20:50:37.604Z,13.70
2019-05-21T20:53:08.955Z,13.70
2019-05-21T20:55:39.062Z,13.60
2019-05-21T20:58:28.933Z,13.60
2019-05-21T21:01:02.206Z,13.60
2019-05-21T21:03:35.217Z,13.60
2019-05-21T21:06:05.370Z,13.60
2019-05-21T21:08:36.636Z,13.60
2019-05-21T21:11:09.047Z,13.60
2019-05-21T21:13:40.834Z,13.60
2019-05-21T21:16:12.374Z,13.60
2019-05-21T21:18:42.708Z,13.60
2019-05-21T21:21:13.433Z,13.60
2019-05-21T21:23:44.834Z,13.60
2019-05-21T21:26:27.011Z,13.60
2019-05-21T21:28:57.393Z,13.60
2019-05-21T21:31:27.507Z,13.50
2019-05-21T21:33:57.809Z,13.50
2019-05-21T21:36:28.357Z,13.50
2019-05-21T21:38:59.890Z,13.50
2019-05-21T21:41:30.439Z,13.40
2019-05-21T21:44:00.602Z,13.40
2019-05-21T21:46:30.964Z,13.30
2019-05-21T21:49:01.337Z,13.30
2019-05-21T21:51:31.662Z,13.30
2019-05-21T21:54:02.554Z,13.30
2019-05-21T21:56:32.654Z,13.30
2019-05-21T21:59:02.659Z,13.30
2019-05-21T22:01:54.421Z,13.30
2019-05-21T22:04:37.404Z,13.30
2019-05-21T22:07:08.350Z,13.30
2019-05-21T22:09:39.905Z,13.30
2019-05-21T22:12:12.563Z,13.30
2019-05-21T22:14:51.743Z,13.30
2019-05-21T22:17:17.415Z,13.20
2019-05-21T22:19:48.000Z,13.20
2019-05-21T22:22:18.802Z,13.30
2019-05-21T22:24:49.599Z,13.20
2019-05-21T22:27:19.958Z,13.30
2019-05-21T22:29:50.398Z,13.20
2019-05-21T22:32:20.543Z,13.20
2019-05-21T22:34:50.542Z,13.30
2019-05-21T22:37:23.603Z,13.30
2019-05-21T22:39:53.882Z,13.30
2019-05-21T22:42:24.472Z,13.20
2019-05-21T22:45:07.420Z,13.30
2019-05-21T22:47:27.370Z,13.20
2019-05-21T22:49:57.594Z,13.20
2019-05-21T22:52:27.506Z,13.30
2019-05-21T22:54:57.375Z,13.30
2019-05-21T22:57:27.397Z,13.30
2019-05-21T22:59:57.317Z,13.20
2019-05-21T23:02:31.543Z,13.20
2019-05-21T23:05:01.449Z,13.20
2019-05-21T23:07:31.361Z,13.20
2019-05-21T23:10:01.370Z,13.20
2019-05-21T23:12:31.482Z,13.20
2019-05-21T23:15:01.517Z,13.20
2019-05-21T23:17:33.745Z,13.10
2019-05-21T23:20:27.821Z,13.10
2019-05-21T23:22:57.842Z,13.10
2019-05-21T23:25:28.409Z,13.00
2019-05-21T23:27:59.628Z,13.00
2019-05-21T23:30:29.969Z,13.00
2019-05-21T23:32:59.888Z,13.00
2019-05-21T23:35:30.247Z,13.00
2019-05-21T23:38:02.417Z,12.90
2019-05-21T23:40:32.528Z,12.90
2019-05-21T23:43:05.960Z,12.90
2019-05-21T23:45:35.914Z,12.90
2019-05-21T23:48:08.415Z,12.90
2019-05-21T23:50:38.454Z,12.90
2019-05-21T23:53:09.440Z,12.90
2019-05-21T23:55:40.375Z,12.80
2019-05-21T23:58:10.349Z,12.90
